createdAt,value
2023-04-27T00:01:14.103Z,74.53
2023-04-27T00:03:17.966Z,74.48
2023-04-27T00:05:21.929Z,74.55
2023-04-27T00:07:26.674Z,74.72
2023-04-27T00:09:30.133Z,74.80
2023-04-27T00:11:33.551Z,74.83
2023-04-27T00:13:38.360Z,74.92
2023-04-27T00:15:41.788Z,75.11
2023-04-27T00:17:45.275Z,75.25
2023-04-27T00:19:48.738Z,75.21
2023-04-27T00:21:52.216Z,75.32
2023-04-27T00:23:55.750Z,75.46
2023-04-27T00:25:59.134Z,75.72
2023-04-27T00:28:02.513Z,75.57
2023-04-27T00:30:08.628Z,75.56
2023-04-27T00:32:12.380Z,75.79
2023-04-27T00:34:15.984Z,75.97
2023-04-27T00:36:19.421Z,75.96
2023-04-27T00:38:24.833Z,76.00
2023-04-27T00:40:28.348Z,76.02
2023-04-27T00:42:32.197Z,76.07
2023-04-27T00:44:35.930Z,76.30
2023-04-27T00:46:40.909Z,76.33
2023-04-27T00:48:44.845Z,76.26
2023-04-27T00:50:48.380Z,76.54
2023-04-27T00:52:51.757Z,76.58
2023-04-27T00:54:55.405Z,76.39
2023-04-27T00:56:59.752Z,76.43
2023-04-27T00:59:03.506Z,76.44
2023-04-27T01:01:08.717Z,76.53
2023-04-27T01:03:14.634Z,76.33
2023-04-27T01:05:18.044Z,76.50
2023-04-27T01:07:26.936Z,76.50
2023-04-27T01:09:30.464Z,76.60
2023-04-27T01:11:34.626Z,76.48
2023-04-27T01:13:38.052Z,76.54
2023-04-27T01:15:42.536Z,76.46
2023-04-27T01:17:46.678Z,76.56
2023-04-27T01:19:52.416Z,76.51
2023-04-27T01:21:55.910Z,76.83
2023-04-27T01:24:03.186Z,76.67
2023-04-27T01:26:06.861Z,76.83
2023-04-27T01:28:10.352Z,76.71
2023-04-27T01:30:14.363Z,76.92
2023-04-27T01:32:17.796Z,77.01
2023-04-27T01:34:21.239Z,77.13
2023-04-27T01:36:24.623Z,77.16
2023-04-27T01:38:28.090Z,77.27
2023-04-27T01:40:32.963Z,77.31
2023-04-27T01:42:36.507Z,77.41
2023-04-27T01:44:39.914Z,77.42
2023-04-27T01:46:43.447Z,77.47
2023-04-27T01:48:46.843Z,77.60
2023-04-27T01:50:50.237Z,77.37
2023-04-27T01:52:53.754Z,77.43
2023-04-27T01:54:58.167Z,77.64
2023-04-27T01:57:03.425Z,77.55
2023-04-27T01:59:06.858Z,77.64
2023-04-27T02:01:10.323Z,77.67
2023-04-27T02:03:13.848Z,77.88
2023-04-27T02:05:17.544Z,77.79
2023-04-27T02:07:22.775Z,77.83
2023-04-27T02:09:26.278Z,77.85
2023-04-27T02:11:29.713Z,77.79
2023-04-27T02:13:34.467Z,77.97
2023-04-27T02:15:38.274Z,77.81
2023-04-27T02:17:41.962Z,77.92
2023-04-27T02:19:45.471Z,77.87
2023-04-27T02:21:48.859Z,77.98
2023-04-27T02:23:52.302Z,77.90
2023-04-27T02:25:55.662Z,78.05
2023-04-27T02:27:59.014Z,77.99
2023-04-27T02:30:07.524Z,77.97
2023-04-27T02:32:11.193Z,77.93
2023-04-27T02:34:15.297Z,77.69
2023-04-27T02:36:18.907Z,77.67
2023-04-27T02:38:22.937Z,77.78
2023-04-27T02:40:26.405Z,77.66
2023-04-27T02:42:31.214Z,77.61
2023-04-27T02:44:34.812Z,77.56
2023-04-27T02:46:39.913Z,77.53
2023-04-27T02:48:43.341Z,77.56
2023-04-27T02:50:46.993Z,77.45
2023-04-27T02:52:50.483Z,77.53
2023-04-27T02:54:54.381Z,77.34
2023-04-27T02:56:57.770Z,77.35
2023-04-27T02:59:01.210Z,77.51
2023-04-27T03:01:04.858Z,77.28
2023-04-27T03:03:10.806Z,77.23
2023-04-27T03:05:14.338Z,77.35
2023-04-27T03:07:17.692Z,77.51
2023-04-27T03:09:21.056Z,77.56
2023-04-27T03:11:24.506Z,77.51
2023-04-27T03:13:28.150Z,77.49
2023-04-27T03:15:31.489Z,77.58
2023-04-27T03:17:35.048Z,77.66
2023-04-27T03:19:39.833Z,77.78
2023-04-27T03:21:43.193Z,77.70
2023-04-27T03:23:46.649Z,77.81
2023-04-27T03:25:50.002Z,77.93
2023-04-27T03:27:53.467Z,77.93
2023-04-27T03:29:58.851Z,77.94
2023-04-27T03:32:02.528Z,78.31
2023-04-27T03:34:06.022Z,78.36
2023-04-27T03:36:11.369Z,78.48
2023-04-27T03:38:18.038Z,78.52
2023-04-27T03:40:21.473Z,78.59
2023-04-27T03:42:24.860Z,78.65
2023-04-27T03:44:28.270Z,78.78
2023-04-27T03:46:31.764Z,78.74
2023-04-27T03:48:36.585Z,78.79
2023-04-27T03:50:39.956Z,79.04
2023-04-27T03:52:44.836Z,79.16
2023-04-27T03:54:49.246Z,79.24
2023-04-27T03:56:52.665Z,79.17
2023-04-27T03:58:56.130Z,79.23
2023-04-27T04:01:06.545Z,79.32
2023-04-27T04:03:10.502Z,79.25
2023-04-27T04:05:15.462Z,79.25
2023-04-27T04:07:19.164Z,79.16
2023-04-27T04:09:24.175Z,79.14
2023-04-27T04:11:27.739Z,79.25
2023-04-27T04:13:34.034Z,79.39
2023-04-27T04:15:37.547Z,79.23
2023-04-27T04:17:41.634Z,79.35
2023-04-27T04:19:45.041Z,79.18
2023-04-27T04:21:49.110Z,79.24
2023-04-27T04:23:52.961Z,79.30
2023-04-27T04:25:57.935Z,79.42
2023-04-27T04:28:05.421Z,79.54
2023-04-27T04:30:09.531Z,79.38
2023-04-27T04:32:17.770Z,79.42
2023-04-27T04:34:21.813Z,79.48
2023-04-27T04:36:25.614Z,79.37
2023-04-27T04:38:31.288Z,79.56
2023-04-27T04:40:36.689Z,79.45
2023-04-27T04:42:41.855Z,79.49
2023-04-27T04:44:46.005Z,79.48
2023-04-27T04:46:49.611Z,79.54
2023-04-27T04:48:54.843Z,79.59
2023-04-27T04:50:58.544Z,79.35
2023-04-27T04:53:02.535Z,79.39
2023-04-27T04:55:06.751Z,79.30
2023-04-27T04:57:10.504Z,79.31
2023-04-27T04:59:16.686Z,79.23
2023-04-27T05:01:20.140Z,79.34
2023-04-27T05:03:25.091Z,79.18
2023-04-27T05:05:28.593Z,79.19
2023-04-27T05:07:32.054Z,79.11
2023-04-27T05:09:35.433Z,79.13
2023-04-27T05:11:38.822Z,79.08
2023-04-27T05:13:42.272Z,79.32
2023-04-27T05:15:47.087Z,79.41
2023-04-27T05:17:50.629Z,79.26
2023-04-27T05:19:54.116Z,79.25
2023-04-27T05:21:57.643Z,79.22
2023-04-27T05:24:01.063Z,79.05
2023-04-27T05:26:12.895Z,78.80
2023-04-27T05:28:16.391Z,78.79
2023-04-27T05:30:19.794Z,78.69
2023-04-27T05:32:24.567Z,78.68
2023-04-27T05:34:27.958Z,78.48
2023-04-27T05:36:31.325Z,78.20
2023-04-27T05:38:36.189Z,77.99
2023-04-27T05:40:39.624Z,78.02
2023-04-27T05:42:42.966Z,78.08
2023-04-27T05:44:46.354Z,78.00
2023-04-27T05:46:50.274Z,77.82
2023-04-27T05:48:55.314Z,77.54
2023-04-27T05:51:02.843Z,77.36
2023-04-27T05:53:06.344Z,77.42
2023-04-27T05:55:10.100Z,77.26
2023-04-27T05:57:13.487Z,76.97
2023-04-27T05:59:16.926Z,76.75
2023-04-27T06:01:20.359Z,76.42
2023-04-27T06:03:23.974Z,76.40
2023-04-27T06:05:29.104Z,76.17
2023-04-27T06:07:32.532Z,75.94
2023-04-27T06:09:35.965Z,75.71
2023-04-27T06:11:39.384Z,75.51
2023-04-27T06:13:42.792Z,75.37
2023-04-27T06:15:46.313Z,75.05
2023-04-27T06:17:49.719Z,74.91
2023-04-27T06:19:53.236Z,74.77
2023-04-27T06:21:58.089Z,74.37
2023-04-27T06:24:01.492Z,74.21
2023-04-27T06:26:05.236Z,73.98
2023-04-27T06:28:08.822Z,73.78
2023-04-27T06:30:13.478Z,73.74
2023-04-27T06:32:16.881Z,73.54
2023-04-27T06:34:20.347Z,73.36
2023-04-27T06:36:23.728Z,73.24
2023-04-27T06:38:28.490Z,72.95
2023-04-27T06:40:31.916Z,72.47
2023-04-27T06:42:35.688Z,72.51
2023-04-27T06:44:39.171Z,72.24
2023-04-27T06:46:42.695Z,72.18
2023-04-27T06:48:46.521Z,72.14
2023-04-27T06:50:50.174Z,72.04
2023-04-27T06:52:53.566Z,71.72
2023-04-27T06:54:58.392Z,71.26
2023-04-27T06:57:01.865Z,71.08
2023-04-27T06:59:05.239Z,70.68
2023-04-27T07:01:08.672Z,70.39
2023-04-27T07:03:12.539Z,69.93
2023-04-27T07:05:16.476Z,69.57
2023-04-27T07:07:19.947Z,69.51
2023-04-27T07:09:27.392Z,69.31
2023-04-27T07:11:32.679Z,69.03
2023-04-27T07:13:36.059Z,68.47
2023-04-27T07:15:39.507Z,68.45
2023-04-27T07:17:42.921Z,68.09
2023-04-27T07:19:46.271Z,67.78
2023-04-27T07:21:50.213Z,67.54
2023-04-27T07:23:54.407Z,67.31
2023-04-27T07:25:59.402Z,66.97
2023-04-27T07:28:04.440Z,66.67
2023-04-27T07:30:10.131Z,66.17
2023-04-27T07:32:13.734Z,65.89
2023-04-27T07:34:17.556Z,65.75
2023-04-27T07:36:20.941Z,64.75
2023-04-27T07:38:24.631Z,64.44
2023-04-27T07:40:28.374Z,64.32
2023-04-27T07:42:31.859Z,63.93
2023-04-27T07:44:36.655Z,63.59
2023-04-27T07:46:40.667Z,63.27
2023-04-27T07:48:44.995Z,62.80
2023-04-27T07:50:48.435Z,62.73
2023-04-27T07:52:51.950Z,62.46
2023-04-27T07:54:55.304Z,61.86
2023-04-27T07:56:58.712Z,61.90
2023-04-27T07:59:02.073Z,62.05
2023-04-27T08:01:06.868Z,61.74
2023-04-27T08:03:10.478Z,61.41
2023-04-27T08:05:14.515Z,60.76
2023-04-27T08:07:19.756Z,60.39
2023-04-27T08:09:23.230Z,60.46
2023-04-27T08:11:26.678Z,60.08
2023-04-27T08:13:30.076Z,60.25
2023-04-27T08:15:33.485Z,60.12
2023-04-27T08:17:40.816Z,59.56
2023-04-27T08:19:44.399Z,58.14
2023-04-27T08:21:47.759Z,57.71
2023-04-27T08:23:51.169Z,57.03
2023-04-27T08:25:54.530Z,56.68
2023-04-27T08:27:57.910Z,55.85
2023-04-27T08:30:01.796Z,55.51
2023-04-27T08:32:07.503Z,55.67
2023-04-27T08:34:12.280Z,55.66
2023-04-27T08:36:15.719Z,55.14
2023-04-27T08:38:19.448Z,54.71
2023-04-27T08:40:24.847Z,54.60
2023-04-27T08:42:28.306Z,53.84
2023-04-27T08:44:31.862Z,54.09
2023-04-27T08:46:35.682Z,54.18
2023-04-27T08:48:39.118Z,53.95
2023-04-27T08:50:45.988Z,53.60
2023-04-27T08:52:50.111Z,53.40
2023-04-27T08:54:55.547Z,53.33
2023-04-27T08:56:59.685Z,53.25
2023-04-27T08:59:04.489Z,52.33
2023-04-27T09:01:08.811Z,51.83
2023-04-27T09:03:20.812Z,52.06
2023-04-27T09:05:24.853Z,51.84
2023-04-27T09:07:29.738Z,51.56
2023-04-27T09:09:33.157Z,51.34
2023-04-27T09:11:37.895Z,51.14
2023-04-27T09:13:45.287Z,51.18
2023-04-27T09:15:50.842Z,51.09
2023-04-27T09:17:58.134Z,51.49
2023-04-27T09:20:12.921Z,51.89
2023-04-27T09:22:16.328Z,51.68
2023-04-27T09:24:21.524Z,50.93
2023-04-27T09:26:26.980Z,50.89
2023-04-27T09:28:32.425Z,50.40
2023-04-27T09:30:37.063Z,50.03
2023-04-27T09:32:40.515Z,49.97
2023-04-27T09:34:44.254Z,50.19
2023-04-27T09:36:48.936Z,49.18
2023-04-27T09:38:53.441Z,49.08
2023-04-27T09:40:59.000Z,49.24
2023-04-27T09:43:02.878Z,48.07
2023-04-27T09:45:08.922Z,47.20
2023-04-27T09:47:14.703Z,47.06
2023-04-27T09:49:20.207Z,46.96
2023-04-27T09:51:23.704Z,46.95
2023-04-27T09:53:35.095Z,46.91
2023-04-27T09:55:42.417Z,46.47
2023-04-27T09:57:55.389Z,47.10
2023-04-27T10:00:14.860Z,47.24
2023-04-27T10:02:25.111Z,47.07
2023-04-27T10:04:55.986Z,46.23
2023-04-27T10:07:02.354Z,45.30
2023-04-27T10:09:06.829Z,45.03
2023-04-27T10:11:19.212Z,45.14
2023-04-27T10:13:26.286Z,45.54
2023-04-27T10:15:30.979Z,45.87
2023-04-27T10:17:37.079Z,46.17
2023-04-27T10:19:40.716Z,46.13
2023-04-27T10:21:56.920Z,45.93
2023-04-27T10:24:09.131Z,45.38
2023-04-27T10:26:12.849Z,45.82
2023-04-27T10:28:18.382Z,45.76
2023-04-27T10:30:25.243Z,45.79
2023-04-27T10:32:30.340Z,45.57
2023-04-27T10:34:36.460Z,45.16
2023-04-27T10:36:41.080Z,45.06
2023-04-27T10:38:44.718Z,45.06
2023-04-27T10:40:56.382Z,44.91
2023-04-27T10:43:11.954Z,45.09
2023-04-27T10:45:15.344Z,44.63
2023-04-27T10:47:20.640Z,43.71
2023-04-27T10:49:24.633Z,43.46
2023-04-27T10:51:28.771Z,43.05
2023-04-27T10:53:35.848Z,42.57
2023-04-27T10:55:39.326Z,43.50
2023-04-27T10:57:53.568Z,44.82
2023-04-27T10:59:57.036Z,45.81
2023-04-27T11:02:00.623Z,46.55
2023-04-27T11:04:05.904Z,47.03
2023-04-27T11:06:09.519Z,47.18
2023-04-27T11:08:14.589Z,47.49
2023-04-27T11:10:18.979Z,47.66
2023-04-27T11:12:23.017Z,47.24
2023-04-27T11:14:26.668Z,46.82
2023-04-27T11:16:32.523Z,47.17
2023-04-27T11:18:38.965Z,46.21
2023-04-27T11:20:45.804Z,45.54
2023-04-27T11:22:49.364Z,44.63
2023-04-27T11:24:54.526Z,44.36
2023-04-27T11:26:57.974Z,43.88
2023-04-27T11:29:05.425Z,43.71
2023-04-27T11:31:09.413Z,43.55
2023-04-27T11:33:12.938Z,43.66
2023-04-27T11:35:17.017Z,43.58
2023-04-27T11:37:26.631Z,43.32
2023-04-27T11:39:30.821Z,43.70
2023-04-27T11:41:35.904Z,43.46
2023-04-27T11:43:43.334Z,43.61
2023-04-27T11:45:47.272Z,44.05
2023-04-27T11:47:50.759Z,43.99
2023-04-27T11:49:55.946Z,44.04
2023-04-27T11:51:59.672Z,44.26
2023-04-27T11:54:06.217Z,44.33
2023-04-27T11:56:11.853Z,44.45
2023-04-27T11:58:17.933Z,44.62
2023-04-27T12:00:21.728Z,44.33
2023-04-27T12:02:25.471Z,44.18
2023-04-27T12:04:30.870Z,44.06
2023-04-27T12:06:34.850Z,44.15
2023-04-27T12:08:38.424Z,43.17
2023-04-27T12:10:43.415Z,42.83
2023-04-27T12:12:46.824Z,42.62
2023-04-27T12:14:50.399Z,42.49
2023-04-27T12:16:53.887Z,42.54
2023-04-27T12:18:58.081Z,42.79
2023-04-27T12:21:03.491Z,43.12
2023-04-27T12:23:07.475Z,43.42
2023-04-27T12:25:11.188Z,43.25
2023-04-27T12:27:16.117Z,43.39
2023-04-27T12:29:21.725Z,43.66
2023-04-27T12:31:27.722Z,43.77
2023-04-27T12:33:31.770Z,43.65
2023-04-27T12:35:35.225Z,44.01
2023-04-27T12:37:39.033Z,44.39
2023-04-27T12:39:42.502Z,44.83
2023-04-27T12:41:46.836Z,45.09
2023-04-27T12:43:51.609Z,45.32
2023-04-27T12:45:55.034Z,45.40
2023-04-27T12:48:03.803Z,45.91
2023-04-27T12:50:09.773Z,45.68
2023-04-27T12:52:13.185Z,46.11
2023-04-27T12:54:16.976Z,46.29
2023-04-27T12:56:21.766Z,46.31
2023-04-27T12:58:26.275Z,46.43
2023-04-27T13:00:31.223Z,47.02
2023-04-27T13:02:35.144Z,47.84
2023-04-27T13:04:38.988Z,49.04
2023-04-27T13:06:42.578Z,50.68
2023-04-27T13:08:45.920Z,51.45
2023-04-27T13:10:49.309Z,52.73
2023-04-27T13:12:52.799Z,54.02
2023-04-27T13:14:56.392Z,55.04
2023-04-27T13:17:02.206Z,55.83
2023-04-27T13:19:05.605Z,56.27
2023-04-27T13:21:09.557Z,56.56
2023-04-27T13:23:12.951Z,56.46
2023-04-27T13:25:16.679Z,56.46
2023-04-27T13:27:20.462Z,55.94
2023-04-27T13:29:24.685Z,55.30
2023-04-27T13:31:28.228Z,55.11
2023-04-27T13:33:34.313Z,54.92
2023-04-27T13:35:37.738Z,55.19
2023-04-27T13:37:42.400Z,55.09
2023-04-27T13:39:45.825Z,54.83
2023-04-27T13:41:49.375Z,54.65
2023-04-27T13:43:52.744Z,54.65
2023-04-27T13:45:57.210Z,54.01
2023-04-27T13:48:01.717Z,53.32
2023-04-27T13:50:08.238Z,52.78
2023-04-27T13:52:11.629Z,52.08
2023-04-27T13:54:15.316Z,51.46
2023-04-27T13:56:19.127Z,51.12
2023-04-27T13:58:25.035Z,50.72
2023-04-27T14:00:33.393Z,50.34
2023-04-27T14:02:36.990Z,50.39
2023-04-27T14:04:40.556Z,49.27
2023-04-27T14:06:46.593Z,48.76
2023-04-27T14:08:50.030Z,48.41
2023-04-27T14:10:53.439Z,47.02
2023-04-27T14:12:57.697Z,46.48
2023-04-27T14:15:01.332Z,45.68
2023-04-27T14:17:05.011Z,45.12
2023-04-27T14:19:09.066Z,45.08
2023-04-27T14:21:12.488Z,44.52
2023-04-27T14:23:17.319Z,44.61
2023-04-27T14:25:20.778Z,45.01
2023-04-27T14:27:24.248Z,44.77
2023-04-27T14:29:27.686Z,44.71
2023-04-27T14:31:31.870Z,44.99
2023-04-27T14:33:35.410Z,45.36
2023-04-27T14:35:38.844Z,45.75
2023-04-27T14:37:42.242Z,45.71
2023-04-27T14:39:47.097Z,45.85
2023-04-27T14:41:50.839Z,45.86
2023-04-27T14:43:54.629Z,46.26
2023-04-27T14:46:05.077Z,46.41
2023-04-27T14:48:15.791Z,46.39
2023-04-27T14:50:19.743Z,46.36
2023-04-27T14:52:23.386Z,46.75
2023-04-27T14:54:26.984Z,47.04
2023-04-27T14:56:31.901Z,47.04
2023-04-27T14:58:35.399Z,47.21
2023-04-27T15:00:39.092Z,47.49
2023-04-27T15:02:42.754Z,47.75
2023-04-27T15:04:46.259Z,48.32
2023-04-27T15:06:49.695Z,48.77
2023-04-27T15:08:53.527Z,49.24
2023-04-27T15:10:59.759Z,49.59
2023-04-27T15:13:04.608Z,49.59
2023-04-27T15:15:10.473Z,49.77
2023-04-27T15:17:14.384Z,49.84
2023-04-27T15:19:17.837Z,49.94
2023-04-27T15:21:21.361Z,50.17
2023-04-27T15:23:25.374Z,50.43
2023-04-27T15:25:28.913Z,50.27
2023-04-27T15:27:32.350Z,49.81
2023-04-27T15:29:37.650Z,49.92
2023-04-27T15:31:41.110Z,50.01
2023-04-27T15:33:44.665Z,50.06
2023-04-27T15:35:48.105Z,50.19
2023-04-27T15:37:52.889Z,50.62
2023-04-27T15:39:56.560Z,50.89
2023-04-27T15:41:59.935Z,51.04
2023-04-27T15:44:03.608Z,51.15
2023-04-27T15:46:08.431Z,51.23
2023-04-27T15:48:12.821Z,51.18
2023-04-27T15:50:17.985Z,51.42
2023-04-27T15:52:21.583Z,51.76
2023-04-27T15:54:25.092Z,51.93
2023-04-27T15:56:30.588Z,52.13
2023-04-27T15:58:34.371Z,52.16
2023-04-27T16:00:37.903Z,52.41
2023-04-27T16:02:43.280Z,52.71
2023-04-27T16:04:47.437Z,52.70
2023-04-27T16:06:51.142Z,52.04
2023-04-27T16:08:56.425Z,51.43
2023-04-27T16:10:59.892Z,51.45
2023-04-27T16:13:03.504Z,50.80
2023-04-27T16:15:11.205Z,49.81
2023-04-27T16:17:14.878Z,48.56
2023-04-27T16:19:19.791Z,48.20
2023-04-27T16:21:23.461Z,48.17
2023-04-27T16:23:27.578Z,47.79
2023-04-27T16:25:31.374Z,47.54
2023-04-27T16:27:34.886Z,47.56
2023-04-27T16:29:38.809Z,47.89
2023-04-27T16:31:42.847Z,48.12
2023-04-27T16:33:48.380Z,48.66
2023-04-27T16:35:53.390Z,49.03
2023-04-27T16:37:56.880Z,49.70
2023-04-27T16:40:07.771Z,50.15
2023-04-27T16:42:22.376Z,50.25
2023-04-27T16:44:28.791Z,50.34
2023-04-27T16:46:40.815Z,50.45
2023-04-27T16:48:44.645Z,50.61
2023-04-27T16:50:49.092Z,50.44
2023-04-27T16:52:53.912Z,50.33
2023-04-27T16:54:57.358Z,50.39
2023-04-27T16:57:01.835Z,50.21
2023-04-27T16:59:05.468Z,50.29
2023-04-27T17:01:09.584Z,50.51
2023-04-27T17:03:13.228Z,50.97
2023-04-27T17:05:17.267Z,51.32
2023-04-27T17:07:21.179Z,51.75
2023-04-27T17:09:26.204Z,52.07
2023-04-27T17:11:29.785Z,52.35
2023-04-27T17:13:33.290Z,52.73
2023-04-27T17:15:37.029Z,52.99
2023-04-27T17:17:41.409Z,53.28
2023-04-27T17:19:45.257Z,53.66
2023-04-27T17:21:49.074Z,54.00
2023-04-27T17:23:53.414Z,54.35
2023-04-27T17:25:58.739Z,54.70
2023-04-27T17:28:02.408Z,54.86
2023-04-27T17:30:08.133Z,55.26
2023-04-27T17:32:11.801Z,55.74
2023-04-27T17:34:15.696Z,55.98
2023-04-27T17:36:19.861Z,56.09
2023-04-27T17:38:23.340Z,56.04
2023-04-27T17:40:27.393Z,55.97
2023-04-27T17:42:32.398Z,56.06
2023-04-27T17:44:39.422Z,55.99
2023-04-27T17:46:47.684Z,55.74
2023-04-27T17:48:52.913Z,55.62
2023-04-27T17:50:56.473Z,55.63
2023-04-27T17:53:02.857Z,55.39
2023-04-27T17:55:09.589Z,55.66
2023-04-27T17:57:13.184Z,55.36
2023-04-27T17:59:18.109Z,55.38
2023-04-27T18:01:21.812Z,55.41
2023-04-27T18:03:30.793Z,55.63
2023-04-27T18:05:35.348Z,55.85
2023-04-27T18:07:39.296Z,55.80
2023-04-27T18:09:43.016Z,55.95
2023-04-27T18:11:46.796Z,56.17
2023-04-27T18:13:50.268Z,56.32
2023-04-27T18:15:55.458Z,56.53
2023-04-27T18:17:58.879Z,56.85
2023-04-27T18:20:09.485Z,57.24
2023-04-27T18:22:13.702Z,57.45
2023-04-27T18:24:17.097Z,58.08
2023-04-27T18:26:21.377Z,58.32
2023-04-27T18:28:24.783Z,58.47
2023-04-27T18:30:28.691Z,58.86
2023-04-27T18:32:35.628Z,59.06
2023-04-27T18:34:39.076Z,59.48
2023-04-27T18:36:43.030Z,59.91
2023-04-27T18:38:48.202Z,60.18
2023-04-27T18:40:51.899Z,60.46
2023-04-27T18:42:55.601Z,60.92
2023-04-27T18:45:01.890Z,61.04
2023-04-27T18:47:06.257Z,61.34
2023-04-27T18:49:11.018Z,61.57
2023-04-27T18:51:14.551Z,61.97
2023-04-27T18:53:17.901Z,62.38
2023-04-27T18:55:21.683Z,62.48
2023-04-27T18:57:26.597Z,62.92
2023-04-27T18:59:30.014Z,63.05
2023-04-27T19:01:33.602Z,63.26
2023-04-27T19:03:37.338Z,63.49
2023-04-27T19:05:43.229Z,63.80
2023-04-27T19:07:46.709Z,64.16
2023-04-27T19:09:50.163Z,64.32
2023-04-27T19:12:02.325Z,64.35
2023-04-27T19:14:06.742Z,64.55
2023-04-27T19:16:10.097Z,64.70
2023-04-27T19:18:13.554Z,65.13
2023-04-27T19:20:16.897Z,65.32
2023-04-27T19:22:21.757Z,65.48
2023-04-27T19:24:25.083Z,65.82
2023-04-27T19:26:29.766Z,66.01
2023-04-27T19:28:33.605Z,65.98
2023-04-27T19:30:36.949Z,66.21
2023-04-27T19:32:40.407Z,66.15
2023-04-27T19:34:43.965Z,66.31
2023-04-27T19:36:49.918Z,66.42
2023-04-27T19:38:55.212Z,66.47
2023-04-27T19:40:58.565Z,66.29
2023-04-27T19:43:01.942Z,66.18
2023-04-27T19:45:06.283Z,66.18
2023-04-27T19:47:10.862Z,66.46
2023-04-27T19:49:14.245Z,66.57
2023-04-27T19:51:17.629Z,66.78
2023-04-27T19:53:20.914Z,66.97
2023-04-27T19:55:25.995Z,67.61
2023-04-27T19:57:29.373Z,67.62
2023-04-27T19:59:32.857Z,67.64
2023-04-27T20:01:36.442Z,67.82
2023-04-27T20:03:40.186Z,68.17
2023-04-27T20:05:45.063Z,68.33
2023-04-27T20:07:50.064Z,68.65
2023-04-27T20:09:53.336Z,69.16
2023-04-27T20:11:58.064Z,69.46
2023-04-27T20:14:01.413Z,69.58
2023-04-27T20:16:05.164Z,69.49
2023-04-27T20:18:08.683Z,69.59
2023-04-27T20:20:12.623Z,69.85
2023-04-27T20:22:15.959Z,70.18
2023-04-27T20:24:19.250Z,70.51
2023-04-27T20:26:22.687Z,70.62
2023-04-27T20:28:29.163Z,71.03
2023-04-27T20:30:33.649Z,71.19
2023-04-27T20:32:39.530Z,71.33
2023-04-27T20:34:43.275Z,71.06
2023-04-27T20:36:46.858Z,71.27
2023-04-27T20:38:50.465Z,71.42
2023-04-27T20:40:54.887Z,71.92
2023-04-27T20:42:58.533Z,72.15
2023-04-27T20:45:05.504Z,72.18
2023-04-27T20:47:08.918Z,72.50
2023-04-27T20:49:13.568Z,72.31
2023-04-27T20:51:18.613Z,72.45
2023-04-27T20:53:21.992Z,72.40
2023-04-27T20:55:25.493Z,72.84
2023-04-27T20:57:29.311Z,73.05
2023-04-27T20:59:32.664Z,73.31
2023-04-27T21:01:37.551Z,73.41
2023-04-27T21:03:41.810Z,73.57
2023-04-27T21:05:45.512Z,73.73
2023-04-27T21:07:48.845Z,73.95
2023-04-27T21:09:52.281Z,74.30
2023-04-27T21:11:55.678Z,74.44
2023-04-27T21:13:59.014Z,74.47
2023-04-27T21:16:02.428Z,74.79
2023-04-27T21:18:13.451Z,74.97
2023-04-27T21:20:22.426Z,75.00
2023-04-27T21:22:25.792Z,75.06
2023-04-27T21:24:29.143Z,75.05
2023-04-27T21:26:32.707Z,74.90
2023-04-27T21:28:36.051Z,75.15
2023-04-27T21:30:39.848Z,75.14
2023-04-27T21:32:43.470Z,75.13
2023-04-27T21:34:48.298Z,75.54
2023-04-27T21:36:51.823Z,75.47
2023-04-27T21:38:55.272Z,75.79
2023-04-27T21:40:59.995Z,75.82
2023-04-27T21:43:06.243Z,75.69
2023-04-27T21:45:13.136Z,75.64
2023-04-27T21:47:18.081Z,75.83
2023-04-27T21:49:21.496Z,75.79
2023-04-27T21:51:26.460Z,75.77
2023-04-27T21:53:31.098Z,75.74
2023-04-27T21:55:34.687Z,75.75
2023-04-27T21:57:38.066Z,75.71
2023-04-27T21:59:41.395Z,75.59
2023-04-27T22:01:45.309Z,75.74
2023-04-27T22:03:48.942Z,76.12
2023-04-27T22:05:52.854Z,75.98
2023-04-27T22:07:59.008Z,75.95
2023-04-27T22:10:02.348Z,75.94
2023-04-27T22:12:06.606Z,76.14
2023-04-27T22:14:10.113Z,76.26
2023-04-27T22:16:14.022Z,76.11
2023-04-27T22:18:17.617Z,75.99
2023-04-27T22:20:21.611Z,76.10
2023-04-27T22:22:25.104Z,76.22
2023-04-27T22:24:30.456Z,76.14
2023-04-27T22:26:33.926Z,76.10
2023-04-27T22:28:37.969Z,76.17
2023-04-27T22:30:42.298Z,76.33
2023-04-27T22:32:45.788Z,76.35
2023-04-27T22:34:49.130Z,76.51
2023-04-27T22:36:52.467Z,76.79
2023-04-27T22:38:56.228Z,76.84
2023-04-27T22:41:00.976Z,76.62
2023-04-27T22:43:04.428Z,76.74
2023-04-27T22:45:08.667Z,76.65
2023-04-27T22:47:12.429Z,76.54
2023-04-27T22:49:17.346Z,76.71
2023-04-27T22:51:21.875Z,76.63
2023-04-27T22:53:25.213Z,76.71
2023-04-27T22:55:28.654Z,76.64
2023-04-27T22:57:33.363Z,76.68
2023-04-27T22:59:36.669Z,76.60
2023-04-27T23:01:39.981Z,76.48
2023-04-27T23:03:43.569Z,76.50
2023-04-27T23:05:47.678Z,76.58
2023-04-27T23:07:52.215Z,76.69
2023-04-27T23:09:55.526Z,76.64
2023-04-27T23:11:59.002Z,76.40
2023-04-27T23:14:03.951Z,76.53
2023-04-27T23:16:09.925Z,76.69
2023-04-27T23:18:13.657Z,76.58
2023-04-27T23:22:28.802Z,76.68
2023-04-27T23:24:32.649Z,76.56
2023-04-27T23:26:36.050Z,76.63
2023-04-27T23:28:39.461Z,76.69
2023-04-27T23:30:44.314Z,76.75
2023-04-27T23:32:47.805Z,76.88
2023-04-27T23:34:54.885Z,77.07
2023-04-27T23:36:58.292Z,77.16
2023-04-27T23:39:01.708Z,77.15
2023-04-27T23:41:05.357Z,77.21
2023-04-27T23:43:08.808Z,77.31
2023-04-27T23:45:12.818Z,77.39
2023-04-27T23:47:17.605Z,77.71
2023-04-27T23:49:21.031Z,77.56
2023-04-27T23:51:24.613Z,77.76
2023-04-27T23:53:28.088Z,77.63
2023-04-27T23:55:31.515Z,77.58
2023-04-27T23:57:34.918Z,77.73
2023-04-27T23:59:38.465Z,78.05
